sensor_id;sensor_type;location;lat;lon;timestamp;P1;durP1;ratioP1;P2;durP2;ratioP2
42702;SDS011;28341;52.064;4.920;2022-10-14T00:01:33;22.10;;;14.77;;
42702;SDS011;28341;52.064;4.920;2022-10-14T00:03:38;81.35;;;16.80;;
42702;SDS011;28341;52.064;4.920;2022-10-14T00:05:45;27.58;;;15.75;;
42702;SDS011;28341;52.064;4.920;2022-10-14T00:07:50;19.23;;;14.88;;
42702;SDS011;28341;52.064;4.920;2022-10-14T00:09:54;30.75;;;16.23;;
42702;SDS011;28341;52.064;4.920;2022-10-14T00:11:59;54.63;;;16.80;;
42702;SDS011;28341;52.064;4.920;2022-10-14T00:14:04;34.40;;;16.38;;
42702;SDS011;28341;52.064;4.920;2022-10-14T00:16:14;24.60;;;16.45;;
42702;SDS011;28341;52.064;4.920;2022-10-14T00:18:21;20.80;;;15.25;;
42702;SDS011;28341;52.064;4.920;2022-10-14T00:20:26;26.70;;;17.55;;
42702;SDS011;28341;52.064;4.920;2022-10-14T01:46:21;120.07;;;53.85;;
42702;SDS011;28341;52.064;4.920;2022-10-14T01:48:29;108.72;;;49.33;;
42702;SDS011;28341;52.064;4.920;2022-10-14T01:50:36;102.80;;;45.25;;
42702;SDS011;28341;52.064;4.920;2022-10-14T01:52:43;103.78;;;44.92;;
42702;SDS011;28341;52.064;4.920;2022-10-14T01:54:51;103.18;;;45.20;;
42702;SDS011;28341;52.064;4.920;2022-10-14T01:56:58;107.65;;;45.17;;
42702;SDS011;28341;52.064;4.920;2022-10-14T01:59:08;110.00;;;47.33;;
42702;SDS011;28341;52.064;4.920;2022-10-14T02:01:13;106.53;;;45.78;;
42702;SDS011;28341;52.064;4.920;2022-10-14T02:03:22;109.50;;;46.75;;
42702;SDS011;28341;52.064;4.920;2022-10-14T02:05:27;105.15;;;47.60;;
42702;SDS011;28341;52.064;4.920;2022-10-14T02:07:37;108.43;;;47.33;;
42702;SDS011;28341;52.064;4.920;2022-10-14T02:09:45;113.95;;;51.80;;
42702;SDS011;28341;52.064;4.920;2022-10-14T02:12:03;117.68;;;51.58;;
42702;SDS011;28341;52.064;4.920;2022-10-14T02:14:18;131.57;;;55.60;;
42702;SDS011;28341;52.064;4.920;2022-10-14T02:16:34;159.70;;;58.25;;
42702;SDS011;28341;52.064;4.920;2022-10-14T02:18:45;125.82;;;54.47;;
42702;SDS011;28341;52.064;4.920;2022-10-14T02:20:55;142.15;;;56.20;;
42702;SDS011;28341;52.064;4.920;2022-10-14T02:23:07;152.73;;;60.30;;
42702;SDS011;28341;52.064;4.920;2022-10-14T02:25:15;136.70;;;58.03;;
42702;SDS011;28341;52.064;4.920;2022-10-14T02:27:24;136.05;;;57.22;;
42702;SDS011;28341;52.064;4.920;2022-10-14T02:29:31;151.52;;;61.95;;
42702;SDS011;28341;52.064;4.920;2022-10-14T02:31:37;148.18;;;62.42;;
42702;SDS011;28341;52.064;4.920;2022-10-14T02:33:49;166.90;;;65.93;;
42702;SDS011;28341;52.064;4.920;2022-10-14T02:35:55;175.38;;;66.88;;
42702;SDS011;28341;52.064;4.920;2022-10-14T02:38:00;154.40;;;61.45;;
42702;SDS011;28341;52.064;4.920;2022-10-14T02:40:06;189.52;;;69.72;;
42702;SDS011;28341;52.064;4.920;2022-10-14T02:42:13;159.98;;;64.20;;
42702;SDS011;28341;52.064;4.920;2022-10-14T02:44:18;151.63;;;63.88;;
42702;SDS011;28341;52.064;4.920;2022-10-14T02:46:22;179.60;;;65.97;;
42702;SDS011;28341;52.064;4.920;2022-10-14T02:48:28;168.45;;;66.65;;
42702;SDS011;28341;52.064;4.920;2022-10-14T02:50:35;162.65;;;66.85;;
42702;SDS011;28341;52.064;4.920;2022-10-14T02:52:41;170.73;;;66.10;;
42702;SDS011;28341;52.064;4.920;2022-10-14T02:54:47;179.60;;;66.05;;
42702;SDS011;28341;52.064;4.920;2022-10-14T02:56:52;144.45;;;61.50;;
42702;SDS011;28341;52.064;4.920;2022-10-14T02:58:57;154.02;;;63.15;;
42702;SDS011;28341;52.064;4.920;2022-10-14T03:01:03;145.13;;;61.75;;
42702;SDS011;28341;52.064;4.920;2022-10-14T03:03:08;152.13;;;66.00;;
42702;SDS011;28341;52.064;4.920;2022-10-14T03:05:13;225.15;;;68.72;;
42702;SDS011;28341;52.064;4.920;2022-10-14T03:07:20;153.75;;;61.72;;
42702;SDS011;28341;52.064;4.920;2022-10-14T03:09:26;163.55;;;65.15;;
42702;SDS011;28341;52.064;4.920;2022-10-14T03:11:32;189.45;;;67.13;;
42702;SDS011;28341;52.064;4.920;2022-10-14T03:13:40;162.13;;;65.35;;
42702;SDS011;28341;52.064;4.920;2022-10-14T03:15:46;160.15;;;65.07;;
42702;SDS011;28341;52.064;4.920;2022-10-14T03:17:53;157.77;;;65.90;;
42702;SDS011;28341;52.064;4.920;2022-10-14T03:20:10;196.73;;;64.15;;
42702;SDS011;28341;52.064;4.920;2022-10-14T03:22:23;159.55;;;60.38;;
42702;SDS011;28341;52.064;4.920;2022-10-14T03:24:29;141.20;;;60.60;;
42702;SDS011;28341;52.064;4.920;2022-10-14T03:26:52;146.95;;;62.45;;
42702;SDS011;28341;52.064;4.920;2022-10-14T03:28:59;150.85;;;60.53;;
42702;SDS011;28341;52.064;4.920;2022-10-14T03:31:22;170.52;;;62.80;;
42702;SDS011;28341;52.064;4.920;2022-10-14T03:33:53;270.80;;;68.38;;
42702;SDS011;28341;52.064;4.920;2022-10-14T03:35:58;144.48;;;60.42;;
42702;SDS011;28341;52.064;4.920;2022-10-14T03:38:32;239.50;;;68.00;;
42702;SDS011;28341;52.064;4.920;2022-10-14T03:40:36;166.80;;;65.55;;
42702;SDS011;28341;52.064;4.920;2022-10-14T03:42:44;286.90;;;71.65;;
42702;SDS011;28341;52.064;4.920;2022-10-14T03:44:50;195.98;;;69.82;;
42702;SDS011;28341;52.064;4.920;2022-10-14T03:47:01;226.65;;;67.25;;
42702;SDS011;28341;52.064;4.920;2022-10-14T03:49:07;158.50;;;62.45;;
42702;SDS011;28341;52.064;4.920;2022-10-14T03:51:12;156.23;;;63.53;;
42702;SDS011;28341;52.064;4.920;2022-10-14T03:53:17;165.13;;;65.07;;
42702;SDS011;28341;52.064;4.920;2022-10-14T03:55:26;161.60;;;62.65;;
42702;SDS011;28341;52.064;4.920;2022-10-14T03:57:32;148.15;;;58.95;;
42702;SDS011;28341;52.064;4.920;2022-10-14T03:59:40;160.07;;;61.92;;
42702;SDS011;28341;52.064;4.920;2022-10-14T04:01:47;150.60;;;60.78;;
42702;SDS011;28341;52.064;4.920;2022-10-14T04:03:56;174.32;;;64.97;;
42702;SDS011;28341;52.064;4.920;2022-10-14T04:06:03;177.57;;;67.40;;
42702;SDS011;28341;52.064;4.920;2022-10-14T04:08:10;227.65;;;72.47;;
42702;SDS011;28341;52.064;4.920;2022-10-14T04:10:21;254.68;;;73.80;;
42702;SDS011;28341;52.064;4.920;2022-10-14T04:12:31;191.15;;;72.10;;
42702;SDS011;28341;52.064;4.920;2022-10-14T04:14:47;291.02;;;76.35;;
42702;SDS011;28341;52.064;4.920;2022-10-14T04:16:51;216.23;;;71.75;;
42702;SDS011;28341;52.064;4.920;2022-10-14T04:18:56;185.00;;;70.82;;
42702;SDS011;28341;52.064;4.920;2022-10-14T04:21:01;189.02;;;69.68;;
42702;SDS011;28341;52.064;4.920;2022-10-14T04:23:09;169.57;;;65.57;;
42702;SDS011;28341;52.064;4.920;2022-10-14T04:25:15;180.52;;;65.90;;
42702;SDS011;28341;52.064;4.920;2022-10-14T04:27:24;193.07;;;72.30;;
42702;SDS011;28341;52.064;4.920;2022-10-14T04:29:40;199.90;;;69.80;;
42702;SDS011;28341;52.064;4.920;2022-10-14T04:31:51;195.00;;;70.75;;
42702;SDS011;28341;52.064;4.920;2022-10-14T04:33:56;197.57;;;73.75;;
42702;SDS011;28341;52.064;4.920;2022-10-14T04:36:07;188.77;;;70.88;;
42702;SDS011;28341;52.064;4.920;2022-10-14T04:38:14;177.27;;;69.20;;
42702;SDS011;28341;52.064;4.920;2022-10-14T04:40:26;177.13;;;67.32;;
42702;SDS011;28341;52.064;4.920;2022-10-14T04:42:31;170.13;;;65.45;;
42702;SDS011;28341;52.064;4.920;2022-10-14T04:44:42;170.85;;;64.43;;
42702;SDS011;28341;52.064;4.920;2022-10-14T04:46:48;173.55;;;67.45;;
42702;SDS011;28341;52.064;4.920;2022-10-14T04:48:56;179.13;;;66.95;;
42702;SDS011;28341;52.064;4.920;2022-10-14T04:51:06;167.02;;;67.93;;
42702;SDS011;28341;52.064;4.920;2022-10-14T04:53:30;177.50;;;65.18;;
42702;SDS011;28341;52.064;4.920;2022-10-14T04:55:43;189.40;;;67.75;;
42702;SDS011;28341;52.064;4.920;2022-10-14T04:57:49;168.77;;;65.20;;
42702;SDS011;28341;52.064;4.920;2022-10-14T04:59:57;164.45;;;64.07;;
42702;SDS011;28341;52.064;4.920;2022-10-14T05:02:27;174.88;;;68.13;;
42702;SDS011;28341;52.064;4.920;2022-10-14T05:04:34;173.38;;;66.50;;
42702;SDS011;28341;52.064;4.920;2022-10-14T05:06:39;164.57;;;65.93;;
42702;SDS011;28341;52.064;4.920;2022-10-14T05:08:46;153.35;;;62.28;;
42702;SDS011;28341;52.064;4.920;2022-10-14T05:10:51;157.60;;;63.35;;
42702;SDS011;28341;52.064;4.920;2022-10-14T05:13:12;154.10;;;62.45;;
42702;SDS011;28341;52.064;4.920;2022-10-14T05:15:33;215.10;;;69.22;;
42702;SDS011;28341;52.064;4.920;2022-10-14T05:17:46;159.60;;;62.55;;
42702;SDS011;28341;52.064;4.920;2022-10-14T05:19:55;156.40;;;62.33;;
42702;SDS011;28341;52.064;4.920;2022-10-14T05:22:01;169.25;;;65.13;;
42702;SDS011;28341;52.064;4.920;2022-10-14T05:24:10;141.65;;;60.20;;
42702;SDS011;28341;52.064;4.920;2022-10-14T05:26:15;155.13;;;63.25;;
42702;SDS011;28341;52.064;4.920;2022-10-14T05:28:21;141.88;;;60.35;;
42702;SDS011;28341;52.064;4.920;2022-10-14T05:30:26;154.93;;;62.83;;
42702;SDS011;28341;52.064;4.920;2022-10-14T05:32:33;152.70;;;63.35;;
42702;SDS011;28341;52.064;4.920;2022-10-14T05:34:40;132.88;;;58.10;;
42702;SDS011;28341;52.064;4.920;2022-10-14T05:36:50;139.05;;;58.17;;
42702;SDS011;28341;52.064;4.920;2022-10-14T05:38:56;144.02;;;59.30;;
42702;SDS011;28341;52.064;4.920;2022-10-14T05:41:06;120.47;;;56.88;;
42702;SDS011;28341;52.064;4.920;2022-10-14T05:43:12;176.00;;;102.18;;
42702;SDS011;28341;52.064;4.920;2022-10-14T05:45:18;150.68;;;78.45;;
42702;SDS011;28341;52.064;4.920;2022-10-14T05:47:26;120.80;;;57.67;;
42702;SDS011;28341;52.064;4.920;2022-10-14T05:49:38;116.32;;;51.40;;
42702;SDS011;28341;52.064;4.920;2022-10-14T05:51:42;121.20;;;51.33;;
42702;SDS011;28341;52.064;4.920;2022-10-14T05:53:53;97.10;;;47.13;;
42702;SDS011;28341;52.064;4.920;2022-10-14T05:56:01;89.65;;;43.88;;
42702;SDS011;28341;52.064;4.920;2022-10-14T05:58:07;88.03;;;45.28;;
42702;SDS011;28341;52.064;4.920;2022-10-14T06:00:15;86.07;;;44.08;;
42702;SDS011;28341;52.064;4.920;2022-10-14T06:02:24;81.63;;;41.05;;
42702;SDS011;28341;52.064;4.920;2022-10-14T06:04:29;113.80;;;72.03;;
42702;SDS011;28341;52.064;4.920;2022-10-14T06:06:39;114.72;;;72.07;;
42702;SDS011;28341;52.064;4.920;2022-10-14T06:08:44;80.63;;;41.33;;
42702;SDS011;28341;52.064;4.920;2022-10-14T06:10:48;68.47;;;37.20;;
42702;SDS011;28341;52.064;4.920;2022-10-14T06:12:54;71.22;;;36.78;;
42702;SDS011;28341;52.064;4.920;2022-10-14T06:15:00;72.47;;;36.53;;
42702;SDS011;28341;52.064;4.920;2022-10-14T06:17:04;67.82;;;36.00;;
42702;SDS011;28341;52.064;4.920;2022-10-14T06:19:09;62.88;;;34.83;;
42702;SDS011;28341;52.064;4.920;2022-10-14T06:21:14;54.92;;;32.55;;
42702;SDS011;28341;52.064;4.920;2022-10-14T06:23:21;92.15;;;59.78;;
42702;SDS011;28341;52.064;4.920;2022-10-14T06:25:25;69.55;;;38.40;;
42702;SDS011;28341;52.064;4.920;2022-10-14T06:27:30;54.35;;;32.33;;
42702;SDS011;28341;52.064;4.920;2022-10-14T06:29:35;58.83;;;33.10;;
42702;SDS011;28341;52.064;4.920;2022-10-14T06:31:39;64.38;;;33.75;;
42702;SDS011;28341;52.064;4.920;2022-10-14T06:33:44;69.68;;;36.28;;
42702;SDS011;28341;52.064;4.920;2022-10-14T06:35:48;59.75;;;33.55;;
42702;SDS011;28341;52.064;4.920;2022-10-14T06:37:53;56.80;;;32.38;;
42702;SDS011;28341;52.064;4.920;2022-10-14T06:40:00;59.38;;;31.98;;
42702;SDS011;28341;52.064;4.920;2022-10-14T06:42:05;60.20;;;33.33;;
42702;SDS011;28341;52.064;4.920;2022-10-14T06:44:09;61.03;;;33.85;;
42702;SDS011;28341;52.064;4.920;2022-10-14T06:46:15;60.42;;;31.90;;
42702;SDS011;28341;52.064;4.920;2022-10-14T06:48:19;54.58;;;31.23;;
42702;SDS011;28341;52.064;4.920;2022-10-14T06:50:24;54.55;;;31.13;;
42702;SDS011;28341;52.064;4.920;2022-10-14T06:52:28;55.17;;;29.75;;
42702;SDS011;28341;52.064;4.920;2022-10-14T06:54:33;55.72;;;31.38;;
42702;SDS011;28341;52.064;4.920;2022-10-14T06:56:40;54.17;;;29.65;;
42702;SDS011;28341;52.064;4.920;2022-10-14T06:58:45;64.30;;;31.95;;
42702;SDS011;28341;52.064;4.920;2022-10-14T07:00:49;58.05;;;30.27;;
42702;SDS011;28341;52.064;4.920;2022-10-14T07:02:54;61.97;;;30.77;;
42702;SDS011;28341;52.064;4.920;2022-10-14T07:05:00;50.67;;;28.15;;
42702;SDS011;28341;52.064;4.920;2022-10-14T07:07:05;54.50;;;29.45;;
42702;SDS011;28341;52.064;4.920;2022-10-14T07:09:09;53.20;;;29.38;;
42702;SDS011;28341;52.064;4.920;2022-10-14T07:11:14;49.03;;;27.27;;
42702;SDS011;28341;52.064;4.920;2022-10-14T07:13:21;49.65;;;28.65;;
42702;SDS011;28341;52.064;4.920;2022-10-14T07:15:26;57.58;;;28.98;;
42702;SDS011;28341;52.064;4.920;2022-10-14T07:17:30;61.78;;;30.33;;
42702;SDS011;28341;52.064;4.920;2022-10-14T07:19:35;57.45;;;29.92;;
42702;SDS011;28341;52.064;4.920;2022-10-14T07:21:39;56.60;;;29.92;;
42702;SDS011;28341;52.064;4.920;2022-10-14T07:23:45;65.60;;;32.80;;
42702;SDS011;28341;52.064;4.920;2022-10-14T07:25:50;62.00;;;32.58;;
42702;SDS011;28341;52.064;4.920;2022-10-14T07:27:54;70.55;;;34.75;;
42702;SDS011;28341;52.064;4.920;2022-10-14T07:30:02;72.65;;;35.60;;
42702;SDS011;28341;52.064;4.920;2022-10-14T07:32:07;78.35;;;38.20;;
42702;SDS011;28341;52.064;4.920;2022-10-14T07:34:12;85.00;;;38.97;;
42702;SDS011;28341;52.064;4.920;2022-10-14T07:36:16;78.40;;;39.35;;
42702;SDS011;28341;52.064;4.920;2022-10-14T07:38:21;77.32;;;38.00;;
42702;SDS011;28341;52.064;4.920;2022-10-14T07:40:25;75.25;;;37.90;;
42702;SDS011;28341;52.064;4.920;2022-10-14T07:42:30;89.05;;;39.95;;
42702;SDS011;28341;52.064;4.920;2022-10-14T07:44:35;111.15;;;45.42;;
42702;SDS011;28341;52.064;4.920;2022-10-14T07:46:42;87.88;;;42.58;;
42702;SDS011;28341;52.064;4.920;2022-10-14T07:48:47;88.07;;;40.55;;
42702;SDS011;28341;52.064;4.920;2022-10-14T07:50:52;88.80;;;42.00;;
42702;SDS011;28341;52.064;4.920;2022-10-14T07:52:56;115.15;;;44.08;;
42702;SDS011;28341;52.064;4.920;2022-10-14T07:55:01;99.38;;;43.88;;
42702;SDS011;28341;52.064;4.920;2022-10-14T07:57:06;100.50;;;43.55;;
42702;SDS011;28341;52.064;4.920;2022-10-14T07:59:11;106.95;;;45.15;;
42702;SDS011;28341;52.064;4.920;2022-10-14T08:01:17;85.55;;;41.65;;
42702;SDS011;28341;52.064;4.920;2022-10-14T08:03:26;90.35;;;41.30;;
42702;SDS011;28341;52.064;4.920;2022-10-14T08:05:30;92.18;;;43.03;;
42702;SDS011;28341;52.064;4.920;2022-10-14T08:07:35;93.18;;;42.72;;
42702;SDS011;28341;52.064;4.920;2022-10-14T08:09:39;103.22;;;44.70;;
42702;SDS011;28341;52.064;4.920;2022-10-14T08:11:44;94.18;;;42.85;;
42702;SDS011;28341;52.064;4.920;2022-10-14T08:13:49;89.60;;;41.83;;
42702;SDS011;28341;52.064;4.920;2022-10-14T08:15:56;85.30;;;41.67;;
42702;SDS011;28341;52.064;4.920;2022-10-14T08:18:00;87.38;;;42.25;;
42702;SDS011;28341;52.064;4.920;2022-10-14T08:20:08;92.43;;;43.25;;
42702;SDS011;28341;52.064;4.920;2022-10-14T08:22:13;94.65;;;43.50;;
42702;SDS011;28341;52.064;4.920;2022-10-14T08:24:17;88.80;;;43.25;;
42702;SDS011;28341;52.064;4.920;2022-10-14T08:26:22;77.80;;;40.88;;
42702;SDS011;28341;52.064;4.920;2022-10-14T08:28:31;84.47;;;42.13;;
42702;SDS011;28341;52.064;4.920;2022-10-14T08:30:36;77.43;;;38.83;;
42702;SDS011;28341;52.064;4.920;2022-10-14T08:32:41;82.30;;;42.38;;
42702;SDS011;28341;52.064;4.920;2022-10-14T08:34:45;80.78;;;42.13;;
42702;SDS011;28341;52.064;4.920;2022-10-14T08:36:52;77.03;;;40.42;;
42702;SDS011;28341;52.064;4.920;2022-10-14T08:38:57;78.28;;;39.42;;
42702;SDS011;28341;52.064;4.920;2022-10-14T08:41:03;82.65;;;41.83;;
42702;SDS011;28341;52.064;4.920;2022-10-14T08:43:16;72.00;;;38.85;;
42702;SDS011;28341;52.064;4.920;2022-10-14T08:45:28;66.80;;;38.13;;
42702;SDS011;28341;52.064;4.920;2022-10-14T08:47:37;69.13;;;38.22;;
42702;SDS011;28341;52.064;4.920;2022-10-14T08:49:49;62.45;;;35.72;;
42702;SDS011;28341;52.064;4.920;2022-10-14T08:52:02;59.63;;;35.55;;
42702;SDS011;28341;52.064;4.920;2022-10-14T08:54:11;59.00;;;34.95;;
42702;SDS011;28341;52.064;4.920;2022-10-14T08:56:18;53.53;;;34.92;;
42702;SDS011;28341;52.064;4.920;2022-10-14T08:58:24;55.58;;;34.42;;
42702;SDS011;28341;52.064;4.920;2022-10-14T09:00:32;55.95;;;34.67;;
42702;SDS011;28341;52.064;4.920;2022-10-14T09:02:38;53.72;;;33.92;;
42702;SDS011;28341;52.064;4.920;2022-10-14T09:04:48;51.53;;;34.97;;
42702;SDS011;28341;52.064;4.920;2022-10-14T09:06:53;54.60;;;32.90;;
42702;SDS011;28341;52.064;4.920;2022-10-14T09:09:03;53.65;;;34.22;;
42702;SDS011;28341;52.064;4.920;2022-10-14T09:11:11;49.42;;;33.13;;
42702;SDS011;28341;52.064;4.920;2022-10-14T09:13:20;49.72;;;32.08;;
42702;SDS011;28341;52.064;4.920;2022-10-14T09:15:31;47.15;;;31.83;;
42702;SDS011;28341;52.064;4.920;2022-10-14T09:17:39;47.05;;;32.97;;
42702;SDS011;28341;52.064;4.920;2022-10-14T09:19:46;44.53;;;30.77;;
42702;SDS011;28341;52.064;4.920;2022-10-14T09:21:54;43.90;;;30.55;;
42702;SDS011;28341;52.064;4.920;2022-10-14T09:24:03;45.53;;;30.10;;
42702;SDS011;28341;52.064;4.920;2022-10-14T09:26:15;45.17;;;30.92;;
42702;SDS011;28341;52.064;4.920;2022-10-14T09:28:21;42.92;;;29.48;;
42702;SDS011;28341;52.064;4.920;2022-10-14T09:30:35;37.20;;;27.48;;
42702;SDS011;28341;52.064;4.920;2022-10-14T09:32:41;39.33;;;28.05;;
42702;SDS011;28341;52.064;4.920;2022-10-14T09:34:49;39.50;;;28.50;;
42702;SDS011;28341;52.064;4.920;2022-10-14T09:36:54;38.70;;;29.45;;
42702;SDS011;28341;52.064;4.920;2022-10-14T09:39:08;41.72;;;29.10;;
42702;SDS011;28341;52.064;4.920;2022-10-14T09:41:14;36.00;;;27.58;;
42702;SDS011;28341;52.064;4.920;2022-10-14T09:43:19;36.13;;;27.80;;
42702;SDS011;28341;52.064;4.920;2022-10-14T09:45:25;36.30;;;27.30;;
42702;SDS011;28341;52.064;4.920;2022-10-14T09:47:31;37.03;;;27.83;;
42702;SDS011;28341;52.064;4.920;2022-10-14T09:49:45;31.55;;;25.23;;
42702;SDS011;28341;52.064;4.920;2022-10-14T09:51:50;32.17;;;25.00;;
42702;SDS011;28341;52.064;4.920;2022-10-14T09:53:56;31.33;;;24.67;;
42702;SDS011;28341;52.064;4.920;2022-10-14T09:56:07;33.22;;;24.92;;
42702;SDS011;28341;52.064;4.920;2022-10-14T09:58:13;31.52;;;23.63;;
42702;SDS011;28341;52.064;4.920;2022-10-14T10:00:23;30.48;;;22.73;;
42702;SDS011;28341;52.064;4.920;2022-10-14T10:02:33;29.40;;;23.00;;
42702;SDS011;28341;52.064;4.920;2022-10-14T10:04:42;31.40;;;22.77;;
42702;SDS011;28341;52.064;4.920;2022-10-14T10:06:49;27.58;;;22.55;;
42702;SDS011;28341;52.064;4.920;2022-10-14T10:08:56;28.70;;;22.73;;
42702;SDS011;28341;52.064;4.920;2022-10-14T10:11:03;29.90;;;22.02;;
42702;SDS011;28341;52.064;4.920;2022-10-14T10:13:19;23.80;;;20.75;;
42702;SDS011;28341;52.064;4.920;2022-10-14T10:15:25;24.63;;;20.57;;
42702;SDS011;28341;52.064;4.920;2022-10-14T10:17:30;25.23;;;20.33;;
42702;SDS011;28341;52.064;4.920;2022-10-14T10:19:37;28.00;;;21.10;;
42702;SDS011;28341;52.064;4.920;2022-10-14T10:21:43;22.15;;;18.90;;
42702;SDS011;28341;52.064;4.920;2022-10-14T10:23:52;22.38;;;19.48;;
42702;SDS011;28341;52.064;4.920;2022-10-14T10:28:26;20.90;;;17.50;;
42702;SDS011;28341;52.064;4.920;2022-10-14T10:30:34;21.40;;;17.05;;
42702;SDS011;28341;52.064;4.920;2022-10-14T10:32:43;20.35;;;16.58;;
42702;SDS011;28341;52.064;4.920;2022-10-14T10:37:26;15.88;;;14.18;;
42702;SDS011;28341;52.064;4.920;2022-10-14T10:39:34;16.95;;;15.10;;
42702;SDS011;28341;52.064;4.920;2022-10-14T10:41:51;15.60;;;13.50;;
42702;SDS011;28341;52.064;4.920;2022-10-14T10:44:13;15.45;;;13.85;;
42702;SDS011;28341;52.064;4.920;2022-10-14T10:46:39;14.18;;;12.73;;
42702;SDS011;28341;52.064;4.920;2022-10-14T10:48:57;13.40;;;12.10;;
42702;SDS011;28341;52.064;4.920;2022-10-14T10:51:08;14.07;;;12.35;;
42702;SDS011;28341;52.064;4.920;2022-10-14T10:53:19;17.67;;;12.50;;
42702;SDS011;28341;52.064;4.920;2022-10-14T10:55:36;14.88;;;12.45;;
42702;SDS011;28341;52.064;4.920;2022-10-14T10:57:52;13.57;;;12.18;;
42702;SDS011;28341;52.064;4.920;2022-10-14T11:00:06;14.27;;;12.82;;
42702;SDS011;28341;52.064;4.920;2022-10-14T11:04:55;13.13;;;11.82;;
42702;SDS011;28341;52.064;4.920;2022-10-14T11:07:09;13.45;;;12.18;;
42702;SDS011;28341;52.064;4.920;2022-10-14T11:09:33;12.65;;;11.45;;
42702;SDS011;28341;52.064;4.920;2022-10-14T11:11:57;13.50;;;12.13;;
42702;SDS011;28341;52.064;4.920;2022-10-14T11:14:26;12.43;;;11.27;;
42702;SDS011;28341;52.064;4.920;2022-10-14T11:16:46;13.63;;;12.15;;
42702;SDS011;28341;52.064;4.920;2022-10-14T11:18:56;12.07;;;10.93;;
42702;SDS011;28341;52.064;4.920;2022-10-14T11:21:09;11.73;;;10.52;;
42702;SDS011;28341;52.064;4.920;2022-10-14T11:23:33;11.75;;;10.52;;
42702;SDS011;28341;52.064;4.920;2022-10-14T11:25:51;10.60;;;9.60;;
42702;SDS011;28341;52.064;4.920;2022-10-14T11:28:03;10.98;;;9.95;;
42702;SDS011;28341;52.064;4.920;2022-10-14T11:32:25;10.20;;;9.20;;
42702;SDS011;28341;52.064;4.920;2022-10-14T11:34:41;8.88;;;8.13;;
42702;SDS011;28341;52.064;4.920;2022-10-14T11:36:52;11.15;;;9.15;;
42702;SDS011;28341;52.064;4.920;2022-10-14T11:39:07;8.70;;;7.90;;
42702;SDS011;28341;52.064;4.920;2022-10-14T11:41:26;8.45;;;7.75;;
42702;SDS011;28341;52.064;4.920;2022-10-14T11:43:41;7.95;;;7.25;;
42702;SDS011;28341;52.064;4.920;2022-10-14T11:45:57;9.35;;;8.55;;
42702;SDS011;28341;52.064;4.920;2022-10-14T11:48:07;8.57;;;7.78;;
42702;SDS011;28341;52.064;4.920;2022-10-14T11:50:25;8.70;;;7.93;;
42702;SDS011;28341;52.064;4.920;2022-10-14T11:52:34;9.43;;;8.48;;
42702;SDS011;28341;52.064;4.920;2022-10-14T11:54:44;8.45;;;7.65;;
42702;SDS011;28341;52.064;4.920;2022-10-14T11:56:53;9.00;;;8.15;;
42702;SDS011;28341;52.064;4.920;2022-10-14T11:59:03;9.60;;;8.60;;
42702;SDS011;28341;52.064;4.920;2022-10-14T12:01:19;9.73;;;8.73;;
42702;SDS011;28341;52.064;4.920;2022-10-14T12:03:37;9.10;;;8.00;;
42702;SDS011;28341;52.064;4.920;2022-10-14T12:05:51;9.77;;;8.80;;
42702;SDS011;28341;52.064;4.920;2022-10-14T12:08:03;10.27;;;9.23;;
42702;SDS011;28341;52.064;4.920;2022-10-14T12:10:19;9.88;;;8.88;;
42702;SDS011;28341;52.064;4.920;2022-10-14T12:12:27;10.60;;;9.50;;
42702;SDS011;28341;52.064;4.920;2022-10-14T12:14:32;10.73;;;9.73;;
42702;SDS011;28341;52.064;4.920;2022-10-14T12:16:42;10.95;;;9.85;;
42702;SDS011;28341;52.064;4.920;2022-10-14T12:18:49;13.02;;;10.45;;
42702;SDS011;28341;52.064;4.920;2022-10-14T12:21:02;11.82;;;10.63;;
42702;SDS011;28341;52.064;4.920;2022-10-14T12:23:16;12.23;;;10.95;;
42702;SDS011;28341;52.064;4.920;2022-10-14T12:25:34;11.73;;;10.50;;
42702;SDS011;28341;52.064;4.920;2022-10-14T12:27:44;11.70;;;10.50;;
42702;SDS011;28341;52.064;4.920;2022-10-14T12:29:49;11.32;;;9.90;;
42702;SDS011;28341;52.064;4.920;2022-10-14T12:32:16;11.75;;;10.32;;
42702;SDS011;28341;52.064;4.920;2022-10-14T12:34:33;12.02;;;10.75;;
42702;SDS011;28341;52.064;4.920;2022-10-14T12:36:40;10.98;;;9.88;;
42702;SDS011;28341;52.064;4.920;2022-10-14T12:38:48;11.60;;;10.40;;
42702;SDS011;28341;52.064;4.920;2022-10-14T12:41:32;11.45;;;10.35;;
42702;SDS011;28341;52.064;4.920;2022-10-14T12:43:43;10.45;;;9.35;;
42702;SDS011;28341;52.064;4.920;2022-10-14T12:46:12;10.35;;;9.35;;
42702;SDS011;28341;52.064;4.920;2022-10-14T12:48:20;9.80;;;8.80;;
42702;SDS011;28341;52.064;4.920;2022-10-14T12:50:27;9.55;;;8.40;;
42702;SDS011;28341;52.064;4.920;2022-10-14T12:52:34;9.05;;;8.10;;
42702;SDS011;28341;52.064;4.920;2022-10-14T12:54:44;8.73;;;7.93;;
42702;SDS011;28341;52.064;4.920;2022-10-14T12:56:53;8.18;;;7.20;;
42702;SDS011;28341;52.064;4.920;2022-10-14T12:59:02;10.32;;;7.30;;
42702;SDS011;28341;52.064;4.920;2022-10-14T13:01:14;7.93;;;7.13;;
42702;SDS011;28341;52.064;4.920;2022-10-14T13:03:23;9.02;;;7.55;;
42702;SDS011;28341;52.064;4.920;2022-10-14T13:05:31;8.23;;;7.40;;
42702;SDS011;28341;52.064;4.920;2022-10-14T13:07:40;9.23;;;8.32;;
42702;SDS011;28341;52.064;4.920;2022-10-14T13:09:45;9.60;;;8.70;;
42702;SDS011;28341;52.064;4.920;2022-10-14T13:14:57;14.57;;;10.90;;
42702;SDS011;28341;52.064;4.920;2022-10-14T13:17:24;12.15;;;10.65;;
42702;SDS011;28341;52.064;4.920;2022-10-14T13:19:41;12.60;;;11.30;;
42702;SDS011;28341;52.064;4.920;2022-10-14T13:21:50;13.13;;;11.80;;
42702;SDS011;28341;52.064;4.920;2022-10-14T13:23:56;13.52;;;12.10;;
42702;SDS011;28341;52.064;4.920;2022-10-14T13:26:08;13.05;;;11.65;;
42702;SDS011;28341;52.064;4.920;2022-10-14T13:28:26;14.07;;;12.57;;
42702;SDS011;28341;52.064;4.920;2022-10-14T13:30:38;17.17;;;11.80;;
42702;SDS011;28341;52.064;4.920;2022-10-14T13:32:59;14.73;;;12.27;;
42702;SDS011;28341;52.064;4.920;2022-10-14T13:35:19;14.70;;;12.10;;
42702;SDS011;28341;52.064;4.920;2022-10-14T13:37:29;15.18;;;12.00;;
42702;SDS011;28341;52.064;4.920;2022-10-14T13:39:36;14.57;;;11.70;;
42702;SDS011;28341;52.064;4.920;2022-10-14T13:41:40;13.50;;;11.52;;
42702;SDS011;28341;52.064;4.920;2022-10-14T13:43:46;14.32;;;10.77;;
42702;SDS011;28341;52.064;4.920;2022-10-14T13:45:51;11.73;;;10.52;;
42702;SDS011;28341;52.064;4.920;2022-10-14T13:47:58;12.68;;;9.98;;
42702;SDS011;28341;52.064;4.920;2022-10-14T13:50:03;11.95;;;9.95;;
42702;SDS011;28341;52.064;4.920;2022-10-14T13:52:16;11.80;;;9.93;;
42702;SDS011;28341;52.064;4.920;2022-10-14T13:54:26;10.05;;;8.95;;
42702;SDS011;28341;52.064;4.920;2022-10-14T13:56:32;12.23;;;8.77;;
42702;SDS011;28341;52.064;4.920;2022-10-14T13:58:36;73.90;;;63.75;;
42702;SDS011;28341;52.064;4.920;2022-10-14T14:00:48;38.05;;;32.67;;
42702;SDS011;28341;52.064;4.920;2022-10-14T14:03:00;12.10;;;8.90;;
42702;SDS011;28341;52.064;4.920;2022-10-14T14:05:09;34.33;;;29.10;;
42702;SDS011;28341;52.064;4.920;2022-10-14T14:07:21;11.30;;;8.38;;
42702;SDS011;28341;52.064;4.920;2022-10-14T14:09:29;10.15;;;7.30;;